Time;durP1;ratioP1;P1;durP2;ratioP2;P2;SDS_P1;SDS_P2;PMS_P1;PMS_P2;Temp;Humidity;BMP_temperature;BMP_pressure;BME280_temperature;BME280_humidity;BME280_pressure;Samples;Min_cycle;Max_cycle;Signal;HPM_P1;HPM_P2
2022/05/07 00:00:30;;;;;;;21.70;13.68;;;;;;;13.13;65.70;102226.06;5061549;28;20337;-79
2022/05/07 00:02:56;;;;;;;23.27;13.90;;;;;;;13.08;66.12;102214.81;5064993;28;20028;-79
2022/05/07 00:05:22;;;;;;;17.55;13.48;;;;;;;13.05;66.48;102217.47;5056783;28;20369;-79
2022/05/07 00:07:47;;;;;;;17.52;12.73;;;;;;;13.04;66.93;102223.56;5063703;28;20029;-79
2022/05/07 00:10:13;;;;;;;19.35;13.23;;;;;;;13.04;66.81;102219.22;5063620;28;20536;-79
2022/05/07 00:12:38;;;;;;;19.95;13.05;;;;;;;13.03;66.57;102212.25;5062405;28;20039;-79
2022/05/07 00:15:04;;;;;;;20.00;13.38;;;;;;;13.01;67.11;102202.69;5061544;28;20028;-79
2022/05/07 00:20:13;;;;;;;19.40;13.70;;;;;;;12.90;67.23;102201.13;5064380;28;20058;-79
2022/05/07 00:22:38;;;;;;;17.95;12.75;;;;;;;12.89;67.33;102202.00;5061723;28;20111;-79
2022/05/07 00:25:04;;;;;;;17.85;12.88;;;;;;;12.84;67.22;102198.56;5065809;28;20476;-79
2022/05/07 00:27:29;;;;;;;18.05;13.38;;;;;;;12.81;67.68;102201.22;5067597;28;20395;-79
2022/05/07 00:29:54;;;;;;;18.50;13.50;;;;;;;12.80;67.00;102204.75;5061137;28;20032;-78
2022/05/07 00:32:20;;;;;;;20.33;13.63;;;;;;;12.77;67.00;102210.00;5063559;28;20029;-78
2022/05/07 00:34:45;;;;;;;20.02;13.32;;;;;;;12.76;66.63;102205.66;5064275;28;20421;-78
2022/05/07 00:37:11;;;;;;;16.30;12.65;;;;;;;12.73;67.51;102203.09;5060412;28;20074;-79
2022/05/07 00:39:36;;;;;;;20.33;12.93;;;;;;;12.74;67.06;102199.59;5060602;28;20038;-79
2022/05/07 00:42:05;;;;;;;19.05;13.60;;;;;;;12.73;66.35;102203.09;5062305;28;20468;-79
2022/05/07 00:44:32;;;;;;;20.98;14.85;;;;;;;12.69;67.10;102201.38;5058757;28;20774;-79
2022/05/07 00:47:16;;;;;;;20.40;14.27;;;;;;;12.68;65.91;102199.66;5060917;28;20024;-79
2022/05/07 00:49:46;;;;;;;18.45;13.77;;;;;;;12.60;67.16;102192.81;5057610;28;20460;-79
2022/05/07 00:52:13;;;;;;;19.40;13.57;;;;;;;12.58;67.22;102194.56;5065100;28;20055;-79
2022/05/07 00:54:38;;;;;;;19.88;13.10;;;;;;;12.55;67.70;102196.38;5065922;28;20032;-78
2022/05/07 00:57:04;;;;;;;21.08;13.13;;;;;;;12.50;67.31;102196.38;5065892;28;20035;-78
2022/05/07 00:59:29;;;;;;;21.73;13.50;;;;;;;12.48;67.58;102195.53;5069686;28;20028;-78
2022/05/07 01:01:54;;;;;;;17.70;12.50;;;;;;;12.45;67.46;102193.00;5066973;28;20481;-78
2022/05/07 01:04:20;;;;;;;17.13;14.15;;;;;;;12.42;67.77;102187.81;5076383;28;20043;-78
2022/05/07 01:06:45;;;;;;;16.98;13.20;;;;;;;12.38;68.03;102189.56;5064420;28;20467;-78
2022/05/07 01:09:11;;;;;;;17.45;12.52;;;;;;;12.35;68.14;102186.13;5064975;28;20024;-79
2022/05/07 01:11:36;;;;;;;16.48;13.10;;;;;;;12.34;68.54;102187.00;5063483;28;20115;-78
2022/05/07 01:14:02;;;;;;;17.42;13.27;;;;;;;12.34;68.60;102189.63;5065472;28;20032;-78
2022/05/07 01:16:27;;;;;;;18.30;13.63;;;;;;;12.34;68.63;102181.78;5061689;28;20024;-78
2022/05/07 01:18:52;;;;;;;18.50;14.15;;;;;;;12.35;68.74;102180.91;5059623;28;20033;-78
2022/05/07 01:21:18;;;;;;;21.00;13.63;;;;;;;12.33;68.93;102180.06;5064138;28;20021;-78
2022/05/07 01:23:45;;;;;;;18.50;13.85;;;;;;;12.29;69.08;102177.53;5065554;28;20040;-78
2022/05/07 01:26:11;;;;;;;20.02;14.30;;;;;;;12.28;68.96;102178.41;5064543;28;20459;-78
2022/05/07 01:28:37;;;;;;;20.40;13.13;;;;;;;12.28;68.92;102180.13;5063121;28;20112;-78
2022/05/07 01:31:03;;;;;;;18.40;13.60;;;;;;;12.27;68.99;102174.06;5065192;28;20094;-79
2022/05/07 01:33:30;;;;;;;17.73;13.45;;;;;;;12.24;68.96;102175.81;5066042;28;20479;-78
2022/05/07 01:35:55;;;;;;;17.83;14.18;;;;;;;12.22;69.23;102165.41;5065913;28;20078;-79
2022/05/07 01:38:21;;;;;;;18.02;13.40;;;;;;;12.24;68.84;102170.59;5063893;28;20071;-78
2022/05/07 01:40:46;;;;;;;18.80;13.23;;;;;;;12.23;68.80;102172.34;5070018;28;20045;-78
2022/05/07 01:43:11;;;;;;;18.83;13.45;;;;;;;12.24;68.63;102165.38;5069393;28;20044;-78
2022/05/07 01:45:36;;;;;;;17.90;12.75;;;;;;;12.22;69.17;102170.63;5066999;28;20028;-78
2022/05/07 01:48:11;;;;;;;19.45;13.70;;;;;;;12.19;68.97;102173.25;5068462;28;20032;-78
2022/05/07 01:50:41;;;;;;;18.48;13.48;;;;;;;12.16;68.75;102170.69;5063675;28;20035;-78
2022/05/07 01:53:08;;;;;;;20.88;13.68;;;;;;;12.18;69.12;102171.53;5066289;28;20032;-78
2022/05/07 01:55:34;;;;;;;19.38;13.52;;;;;;;12.16;69.14;102165.47;5065655;28;20032;-78
2022/05/07 01:57:59;;;;;;;17.80;13.80;;;;;;;12.17;68.92;102166.34;5064180;28;20024;-78
2022/05/07 02:00:25;;;;;;;19.27;14.05;;;;;;;12.15;69.14;102168.94;5064775;28;21388;-78
2022/05/07 02:02:50;;;;;;;18.10;13.73;;;;;;;12.14;69.11;102162.00;5071270;28;20031;-78
2022/05/07 02:05:15;;;;;;;20.65;13.80;;;;;;;12.12;69.13;102164.66;5063683;28;20037;-78
2022/05/07 02:07:41;;;;;;;19.17;13.77;;;;;;;12.09;68.86;102163.81;5058009;28;20438;-78
2022/05/07 02:10:06;;;;;;;18.63;13.13;;;;;;;12.07;68.59;102157.75;5062887;28;20046;-79
2022/05/07 02:12:32;;;;;;;18.50;13.90;;;;;;;12.03;68.62;102151.72;5062161;28;20037;-78
2022/05/07 02:14:57;;;;;;;20.67;13.50;;;;;;;12.02;69.10;102151.72;5072107;28;20072;-79
2022/05/07 02:17:22;;;;;;;21.10;14.23;;;;;;;11.98;69.62;102156.97;5069042;28;20498;-78
2022/05/07 02:19:48;;;;;;;18.48;14.07;;;;;;;11.94;69.80;102150.03;5066921;28;20392;-78
2022/05/07 02:22:13;;;;;;;18.85;13.57;;;;;;;11.95;69.90;102149.16;5069019;28;20052;-78
2022/05/07 02:24:38;;;;;;;22.10;14.10;;;;;;;11.95;69.53;102150.88;5070905;28;20033;-78
2022/05/07 02:27:04;;;;;;;19.92;13.93;;;;;;;11.93;70.18;102152.63;5066590;28;20032;-78
2022/05/07 02:29:29;;;;;;;20.27;14.43;;;;;;;11.89;70.32;102153.53;5064196;28;20499;-78
2022/05/07 02:32:05;;;;;;;20.67;14.13;;;;;;;11.86;70.07;102141.41;5065139;28;20484;-78
2022/05/07 02:34:34;;;;;;;21.10;13.98;;;;;;;11.84;70.12;102149.25;5073615;28;20028;-78
2022/05/07 02:37:01;;;;;;;16.83;13.70;;;;;;;11.83;70.44;102141.44;5069419;28;20041;-79
2022/05/07 02:39:27;;;;;;;19.83;14.02;;;;;;;11.79;70.60;102145.81;5062482;28;20438;-78
2022/05/07 02:44:36;;;;;;;20.90;14.82;;;;;;;11.78;71.06;102138.88;5067662;28;20059;-78
2022/05/07 02:47:02;;;;;;;20.83;15.20;;;;;;;11.75;71.06;102141.50;5068813;28;20028;-78
2022/05/07 02:49:27;;;;;;;19.85;14.95;;;;;;;11.75;71.04;102140.66;5067678;28;20473;-78
2022/05/07 02:51:52;;;;;;;21.65;15.88;;;;;;;11.77;71.27;102139.75;5069702;28;20104;-79
2022/05/07 02:54:18;;;;;;;20.13;15.30;;;;;;;11.75;71.78;102128.47;5069001;28;20377;-78
2022/05/07 02:56:43;;;;;;;22.27;15.90;;;;;;;11.74;71.56;102141.53;5070605;28;20032;-78
2022/05/07 02:59:08;;;;;;;20.17;15.02;;;;;;;11.69;71.53;102128.56;5071301;28;20032;-78
2022/05/07 03:01:34;;;;;;;21.27;15.10;;;;;;;11.64;71.82;102130.34;5067985;28;20036;-78
2022/05/07 03:03:59;;;;;;;21.02;14.52;;;;;;;11.59;72.07;102133.00;5072737;28;20399;-78
2022/05/07 03:06:24;;;;;;;21.65;15.45;;;;;;;11.58;71.74;102136.47;5072329;28;20032;-78
2022/05/07 03:08:49;;;;;;;25.15;15.57;;;;;;;11.59;71.58;102137.31;5072041;28;20032;-78
2022/05/07 03:11:15;;;;;;;21.55;15.50;;;;;;;11.61;71.60;102136.44;5071886;28;20134;-78
2022/05/07 03:13:40;;;;;;;24.85;15.98;;;;;;;11.64;71.72;102135.56;5067846;28;20066;-78
2022/05/07 03:16:06;;;;;;;20.95;15.05;;;;;;;11.66;71.52;102137.25;5069023;28;20369;-78
2022/05/07 03:18:32;;;;;;;20.42;15.20;;;;;;;11.68;71.62;102134.66;5069993;28;20073;-78
2022/05/07 03:20:58;;;;;;;21.63;14.88;;;;;;;11.69;71.53;102136.38;5071773;28;20032;-78
2022/05/07 03:23:25;;;;;;;20.40;15.40;;;;;;;11.69;71.65;102129.41;5068626;28;20036;-78
2022/05/07 03:25:50;;;;;;;22.92;15.32;;;;;;;11.68;71.63;102129.44;5072466;28;20111;-78
2022/05/07 03:28:16;;;;;;;25.40;15.30;;;;;;;11.68;71.68;102138.09;5067751;28;20127;-79
2022/05/07 03:30:41;;;;;;;21.20;15.35;;;;;;;11.66;71.48;102136.41;5069420;28;20029;-78
2022/05/07 03:33:06;;;;;;;22.77;15.13;;;;;;;11.66;71.81;102132.03;5063001;28;20028;-78
2022/05/07 03:35:31;;;;;;;21.17;15.48;;;;;;;11.64;71.61;102136.41;5072261;28;20070;-78
2022/05/07 03:37:56;;;;;;;23.08;15.73;;;;;;;11.62;71.82;102138.16;5068247;28;20035;-79
2022/05/07 03:40:22;;;;;;;19.48;14.55;;;;;;;11.62;71.25;102135.53;5066468;28;20035;-78
2022/05/07 03:42:47;;;;;;;20.67;14.63;;;;;;;11.62;71.17;102138.16;5067915;28;20020;-78
2022/05/07 03:45:12;;;;;;;20.60;15.38;;;;;;;11.58;71.77;102141.69;5068856;28;20020;-78
2022/05/07 03:47:39;;;;;;;21.98;15.20;;;;;;;11.57;71.91;102139.06;5068468;28;20048;-78
2022/05/07 03:50:05;;;;;;;23.50;14.93;;;;;;;11.57;72.61;102139.06;5065297;28;20085;-78
2022/05/07 03:55:16;;;;;;;20.70;13.90;;;;;;;11.61;72.98;102141.66;5070251;28;20034;-78
2022/05/07 03:57:41;;;;;;;19.33;14.38;;;;;;;11.61;71.82;102139.06;5066071;28;20028;-78
2022/05/07 04:00:07;;;;;;;20.20;14.50;;;;;;;11.61;71.57;102141.66;5067718;28;20352;-78
2022/05/07 04:02:35;;;;;;;20.23;15.05;;;;;;;11.60;71.96;102147.75;5066584;28;20056;-78
2022/05/07 04:05:00;;;;;;;23.05;15.02;;;;;;;11.58;72.25;102141.69;5068127;28;20016;-78
2022/05/07 04:07:26;;;;;;;22.42;14.93;;;;;;;11.56;72.65;102143.44;5068901;28;20487;-78
2022/05/07 04:09:54;;;;;;;23.13;15.00;;;;;;;11.56;72.66;102143.44;5067592;28;20082;-78
2022/05/07 04:12:19;;;;;;;19.23;14.02;;;;;;;11.54;72.64;102147.81;5067411;28;20191;-78
2022/05/07 04:14:45;;;;;;;23.13;14.65;;;;;;;11.54;72.60;102150.41;5066875;28;20243;-78
2022/05/07 04:17:10;;;;;;;21.73;14.95;;;;;;;11.54;72.79;102146.03;5070064;28;20028;-78
2022/05/07 04:19:36;;;;;;;22.23;15.27;;;;;;;11.51;72.37;102146.09;5067607;28;20028;-78
2022/05/07 04:22:02;;;;;;;20.98;15.10;;;;;;;11.52;72.99;102150.44;5067488;28;20030;-78
2022/05/07 04:24:28;;;;;;;23.60;15.27;;;;;;;11.52;73.31;102152.16;5064220;28;20537;-78
2022/05/07 04:26:53;;;;;;;23.25;14.90;;;;;;;11.53;73.43;102151.28;5067082;28;20043;-78
2022/05/07 04:29:19;;;;;;;20.95;15.40;;;;;;;11.56;73.03;102148.66;5064271;28;20476;-78
2022/05/07 04:31:44;;;;;;;24.20;15.50;;;;;;;11.57;73.09;102144.28;5067049;28;20028;-78
2022/05/07 04:34:10;;;;;;;23.15;16.33;;;;;;;11.57;73.18;102155.59;5067776;28;20027;-78
2022/05/07 04:36:35;;;;;;;24.63;16.67;;;;;;;11.57;73.43;102160.81;5067992;28;20550;-78
2022/05/07 04:39:00;;;;;;;24.33;16.92;;;;;;;11.59;72.94;102169.47;5066437;28;20056;-78
2022/05/07 04:41:25;;;;;;;23.38;16.38;;;;;;;11.60;73.21;102165.13;5070045;28;20416;-78
2022/05/07 04:43:51;;;;;;;24.75;17.35;;;;;;;11.61;73.58;102164.25;5061391;28;20154;-78
2022/05/07 04:46:17;;;;;;;28.70;18.23;;;;;;;11.63;73.27;102171.16;5067763;28;20021;-78
2022/05/07 04:48:43;;;;;;;24.92;17.15;;;;;;;11.67;73.06;102170.25;5063702;28;20032;-78
2022/05/07 04:51:08;;;;;;;26.20;18.08;;;;;;;11.71;73.13;102165.03;5063711;28;20028;-78
2022/05/07 04:53:33;;;;;;;28.35;17.98;;;;;;;11.73;73.28;102165.88;5068004;28;20028;-78
2022/05/07 04:55:59;;;;;;;24.13;17.40;;;;;;;11.75;73.54;102164.13;5065373;28;20041;-78
2022/05/07 04:58:24;;;;;;;26.50;17.40;;;;;;;11.78;73.45;102169.31;5067970;28;20558;-78
2022/05/07 05:00:49;;;;;;;24.77;17.05;;;;;;;11.83;73.60;102172.72;5064733;28;20028;-78
2022/05/07 05:03:15;;;;;;;25.52;17.27;;;;;;;11.86;72.95;102162.28;5069458;28;20028;-78
2022/05/07 05:05:41;;;;;;;23.55;16.67;;;;;;;11.90;73.02;102170.91;5069324;28;20020;-78
2022/05/07 05:08:07;;;;;;;24.08;17.27;;;;;;;11.92;73.20;102172.66;5064264;28;20033;-78
2022/05/07 05:10:32;;;;;;;30.25;17.85;;;;;;;11.95;73.49;102180.44;5064783;28;20040;-78
2022/05/07 05:12:57;;;;;;;25.27;17.55;;;;;;;11.98;73.46;102183.03;5068560;28;20391;-78
2022/05/07 05:15:23;;;;;;;29.13;17.98;;;;;;;12.01;73.60;102186.50;5072345;28;20028;-78
2022/05/07 05:17:48;;;;;;;30.83;17.80;;;;;;;12.05;73.48;102185.59;5067939;28;21383;-78
2022/05/07 05:20:14;;;;;;;26.77;17.73;;;;;;;12.08;73.36;102180.34;5066847;28;20024;-78
2022/05/07 05:22:48;;;;;;;25.45;18.25;;;;;;;12.13;73.01;102187.25;5070822;28;20399;-78
2022/05/07 05:25:14;;;;;;;27.88;19.50;;;;;;;12.20;72.76;102190.66;5070693;28;20025;-78
2022/05/07 05:27:39;;;;;;;34.10;18.70;;;;;;;12.25;73.00;102194.09;5067458;28;20021;-78
2022/05/07 05:30:05;;;;;;;32.92;19.83;;;;;;;12.32;73.05;102201.81;5067037;28;20472;-78
2022/05/07 05:32:30;;;;;;;30.05;20.13;;;;;;;12.38;72.77;102199.16;5069426;28;20103;-78
2022/05/07 05:34:55;;;;;;;29.80;19.58;;;;;;;12.43;72.31;102200.81;5070059;28;20105;-78
2022/05/07 05:37:20;;;;;;;30.08;20.58;;;;;;;12.48;71.71;102197.31;5065906;28;20032;-78
2022/05/07 05:39:46;;;;;;;27.40;19.92;;;;;;;12.54;71.98;102202.47;5071026;28;20415;-78
2022/05/07 05:42:12;;;;;;;30.80;21.83;;;;;;;12.60;71.91;102205.84;5072623;28;20091;-78
2022/05/07 05:44:38;;;;;;;30.52;21.55;;;;;;;12.67;72.16;102208.38;5062392;28;20411;-78
2022/05/07 05:47:06;;;;;;;33.45;22.55;;;;;;;12.74;71.27;102210.03;5067789;28;20173;-78
2022/05/07 05:49:31;;;;;;;31.92;23.15;;;;;;;12.81;70.86;102216.88;5067459;28;20053;-78
2022/05/07 05:51:56;;;;;;;32.03;23.38;;;;;;;12.90;70.65;102219.41;5071630;28;20052;-78
2022/05/07 05:54:22;;;;;;;30.25;22.73;;;;;;;12.97;70.21;102214.94;5067681;28;20032;-78
2022/05/07 05:56:47;;;;;;;36.53;22.38;;;;;;;13.03;70.13;102212.25;5068148;28;20096;-77
2022/05/07 05:59:12;;;;;;;30.23;21.52;;;;;;;13.10;69.25;102217.38;5073394;28;20021;-78
2022/05/07 06:01:38;;;;;;;31.58;20.20;;;;;;;13.11;68.96;102214.78;5070647;28;20020;-78
2022/05/07 06:04:03;;;;;;;28.05;19.10;;;;;;;13.12;68.87;102221.72;5068180;28;20519;-78
2022/05/07 06:06:29;;;;;;;32.28;20.17;;;;;;;13.14;69.13;102217.34;5068827;28;20020;-78
2022/05/07 06:08:54;;;;;;;34.10;19.10;;;;;;;13.16;68.12;102218.16;5069085;28;20042;-78
2022/05/07 06:11:19;;;;;;;25.85;18.83;;;;;;;13.18;68.48;102215.53;5069256;28;20123;-78
2022/05/07 06:13:47;;;;;;;30.02;18.70;;;;;;;13.21;68.44;102216.34;5068355;28;20020;-78
2022/05/07 06:16:12;;;;;;;25.02;18.00;;;;;;;13.26;68.52;102220.66;5069380;28;20024;-78
2022/05/07 06:18:37;;;;;;;27.08;18.98;;;;;;;13.29;68.54;102212.78;5069224;28;20391;-78
2022/05/07 06:21:03;;;;;;;25.65;16.42;;;;;;;13.35;67.62;102224.00;5066498;28;20241;-78
2022/05/07 06:23:29;;;;;;;24.45;16.55;;;;;;;13.43;68.27;102223.03;5062468;28;20028;-77
2022/05/07 06:28:38;;;;;;;24.50;14.80;;;;;;;13.59;66.47;102223.66;5068008;28;20043;-77
2022/05/07 06:31:03;;;;;;;21.67;13.15;;;;;;;13.66;66.02;102220.91;5066426;28;20024;-78
2022/05/07 06:33:29;;;;;;;20.38;12.57;;;;;;;13.69;64.57;102220.00;5069712;28;20434;-78
2022/05/07 06:35:54;;;;;;;18.83;11.90;;;;;;;13.76;63.21;102231.22;5070756;28;20033;-77
2022/05/07 06:38:19;;;;;;;21.10;12.30;;;;;;;13.82;65.01;102220.66;5068338;28;20112;-77
2022/05/07 06:40:45;;;;;;;17.73;11.52;;;;;;;13.89;63.82;102224.03;5071272;28;20024;-78
2022/05/07 06:43:10;;;;;;;16.25;11.23;;;;;;;13.93;62.82;102221.31;5067824;28;20033;-78
2022/05/07 06:45:36;;;;;;;17.13;10.70;;;;;;;13.98;62.82;102223.88;5063212;28;20526;-78
2022/05/07 06:48:01;;;;;;;17.10;10.95;;;;;;;14.05;62.98;102216.78;5062249;28;20094;-77
2022/05/07 06:50:27;;;;;;;17.80;11.10;;;;;;;14.11;64.30;102214.91;5067087;28;20028;-77
2022/05/07 06:52:53;;;;;;;18.15;11.13;;;;;;;14.19;62.44;102213.88;5066458;28;20024;-78
2022/05/07 06:55:19;;;;;;;18.20;10.93;;;;;;;14.24;62.00;102217.28;5070833;28;20391;-77
2022/05/07 06:57:45;;;;;;;17.23;10.10;;;;;;;14.31;62.31;102224.16;5060420;28;20067;-77
2022/05/07 07:00:13;;;;;;;18.77;11.02;;;;;;;14.38;61.92;102225.72;5065720;28;20040;-78
2022/05/07 07:02:39;;;;;;;19.40;10.88;;;;;;;14.46;62.51;102220.34;5064845;28;20468;-77
2022/05/07 07:05:05;;;;;;;18.10;11.25;;;;;;;14.53;61.22;102221.97;5067550;28;20024;-77
2022/05/07 07:07:31;;;;;;;18.98;11.57;;;;;;;14.63;61.30;102224.38;5067586;28;20031;-78
2022/05/07 07:09:57;;;;;;;20.55;11.60;;;;;;;14.68;61.10;102220.81;5065962;28;20079;-78
2022/05/07 07:12:22;;;;;;;18.27;10.98;;;;;;;14.77;61.01;102221.50;5064617;28;20032;-77
2022/05/07 07:14:49;;;;;;;20.45;11.20;;;;;;;14.85;61.10;102223.06;5071718;28;20036;-78
2022/05/07 07:17:18;;;;;;;17.25;11.10;;;;;;;14.93;60.43;102220.28;5068101;28;20029;-78
2022/05/07 07:19:46;;;;;;;19.20;12.20;;;;;;;15.01;60.91;102223.63;5066175;28;20042;-78
2022/05/07 07:22:12;;;;;;;18.38;11.50;;;;;;;15.11;61.38;102223.41;5067479;28;20035;-78
2022/05/07 07:24:38;;;;;;;23.05;12.13;;;;;;;15.16;59.88;102225.00;5067904;28;20185;-78
2022/05/07 07:27:04;;;;;;;20.63;12.18;;;;;;;15.20;59.39;102223.16;5060563;28;20487;-78
2022/05/07 07:29:29;;;;;;;24.35;12.20;;;;;;;15.25;60.55;102226.56;5060157;28;20029;-78
2022/05/07 07:31:57;;;;;;;18.55;12.18;;;;;;;15.29;59.19;102225.59;5059453;28;20044;-77
2022/05/07 07:34:22;;;;;;;18.45;11.77;;;;;;;15.37;59.42;102230.66;5062333;28;20093;-77
2022/05/07 07:36:51;;;;;;;22.27;12.30;;;;;;;15.43;59.42;102232.25;5065129;28;20028;-78
2022/05/07 07:39:17;;;;;;;21.58;11.52;;;;;;;15.48;59.11;102227.78;5062159;28;20036;-78
2022/05/07 07:41:44;;;;;;;20.40;12.65;;;;;;;15.53;59.48;102236.41;5063567;28;20021;-78
2022/05/07 07:44:10;;;;;;;17.58;12.10;;;;;;;15.56;58.80;102236.31;5064957;28;20105;-78
2022/05/07 07:49:20;;;;;;;20.27;12.23;;;;;;;15.64;61.42;102225.63;5062509;28;20743;-78
2022/05/07 07:51:45;;;;;;;20.42;12.82;;;;;;;15.73;59.26;102228.03;5063699;28;20032;-78
2022/05/07 07:54:11;;;;;;;21.60;12.85;;;;;;;15.80;59.64;102228.75;5064744;28;20031;-78
2022/05/07 07:56:36;;;;;;;21.25;12.23;;;;;;;15.89;59.38;102232.94;5064945;28;20034;-78
2022/05/07 07:59:02;;;;;;;21.48;12.90;;;;;;;15.96;58.43;102228.38;5062961;28;20032;-78
2022/05/07 08:01:27;;;;;;;22.20;13.30;;;;;;;16.01;59.20;102229.97;5062576;28;20031;-78
2022/05/07 08:03:52;;;;;;;23.33;13.90;;;;;;;16.06;58.73;102227.22;5064795;28;20067;-78
2022/05/07 08:06:17;;;;;;;20.73;12.80;;;;;;;16.11;59.49;102225.34;5064944;28;20180;-78
2022/05/07 08:11:42;;;;;;;24.77;12.77;;;;;;;16.27;56.86;102228.41;5064549;28;20099;-77
2022/05/07 08:14:08;;;;;;;23.45;12.15;;;;;;;16.35;56.68;102220.31;5064395;28;20028;-77
2022/05/07 08:16:34;;;;;;;19.27;11.50;;;;;;;16.40;54.25;102226.28;5064816;28;20472;-78
2022/05/07 08:18:59;;;;;;;19.02;12.07;;;;;;;16.46;54.31;102218.25;5063011;28;20036;-78
2022/05/07 08:21:25;;;;;;;18.65;11.35;;;;;;;16.52;54.44;102222.47;5064561;28;20028;-78
2022/05/07 08:23:50;;;;;;;19.85;12.32;;;;;;;16.59;54.66;102220.50;5065087;28;20055;-78
2022/05/07 08:26:16;;;;;;;23.38;12.13;;;;;;;16.67;55.10;102223.78;5066185;28;20044;-78
2022/05/07 08:28:41;;;;;;;20.45;12.38;;;;;;;16.74;54.98;102220.06;5063973;28;20039;-79
2022/05/07 08:31:08;;;;;;;19.90;12.73;;;;;;;16.83;55.79;102227.69;5064787;28;20032;-78
2022/05/07 08:33:33;;;;;;;18.85;11.98;;;;;;;16.91;54.78;102231.88;5064213;28;20025;-78
2022/05/07 08:35:59;;;;;;;20.02;13.13;;;;;;;17.00;54.89;102231.59;5064013;28;21305;-78
2022/05/07 08:38:24;;;;;;;25.05;14.35;;;;;;;17.09;55.13;102231.31;5063671;28;20028;-79
2022/05/07 08:40:50;;;;;;;21.88;13.15;;;;;;;17.18;54.01;102232.78;5065413;28;20037;-78
2022/05/07 08:43:16;;;;;;;22.25;13.65;;;;;;;17.24;53.63;102222.09;5066088;28;20415;-79
2022/05/07 08:45:43;;;;;;;23.02;14.32;;;;;;;17.33;54.59;102230.63;5066360;28;20028;-80
2022/05/07 08:48:08;;;;;;;22.95;13.70;;;;;;;17.40;53.47;102227.72;5068261;28;20056;-79
2022/05/07 08:50:34;;;;;;;24.27;14.52;;;;;;;17.43;53.19;102222.34;5067870;28;20509;-79
2022/05/07 08:52:59;;;;;;;20.67;14.35;;;;;;;17.52;54.01;102230.88;5069134;28;20063;-79
2022/05/07 08:55:25;;;;;;;24.98;15.25;;;;;;;17.62;54.05;102231.41;5068556;28;20049;-79
2022/05/07 08:57:52;;;;;;;21.65;14.40;;;;;;;17.70;53.71;102218.84;5068550;28;20036;-79
2022/05/07 09:00:22;;;;;;;25.30;15.15;;;;;;;17.77;53.89;102224.75;5065806;28;20082;-79
2022/05/07 09:02:55;;;;;;;23.23;14.82;;;;;;;17.82;54.35;102215.81;5066514;28;20067;-78
2022/05/07 09:05:31;;;;;;;26.50;15.07;;;;;;;17.91;54.85;102219.91;5068880;28;20028;-79
2022/05/07 09:08:01;;;;;;;21.85;14.63;;;;;;;17.95;52.60;102218.88;5068658;28;20044;-78
2022/05/07 09:10:32;;;;;;;23.13;14.35;;;;;;;18.02;53.12;102212.50;5064439;28;20049;-78
2022/05/07 09:13:14;;;;;;;27.17;16.20;;;;;;;18.08;53.84;102218.50;5067875;28;20502;-80
2022/05/07 09:15:57;;;;;;;24.50;15.65;;;;;;;18.11;53.06;102219.22;5066100;28;20475;-79
2022/05/07 09:18:24;;;;;;;23.38;15.80;;;;;;;18.14;51.94;102220.88;5066769;28;20169;-79
2022/05/07 09:21:26;;;;;;;26.77;16.08;;;;;;;18.13;53.15;102220.03;5066413;28;20052;-80
2022/05/07 09:23:57;;;;;;;26.55;15.82;;;;;;;18.11;52.36;102218.34;5068107;28;20032;-80
2022/05/07 09:26:26;;;;;;;23.35;15.38;;;;;;;18.10;53.83;102216.66;5067913;28;20029;-79
2022/05/07 09:28:52;;;;;;;21.40;14.95;;;;;;;18.12;53.12;102214.81;5065596;28;21475;-79
2022/05/07 09:31:27;;;;;;;25.60;15.23;;;;;;;18.18;54.45;102211.97;5068484;28;20446;-79
2022/05/07 09:33:54;;;;;;;20.08;12.35;;;;;;;18.22;49.37;102210.06;5068028;28;20078;-80
2022/05/07 09:36:22;;;;;;;23.17;13.40;;;;;;;18.19;50.44;102213.69;5067392;28;20036;-79
2022/05/07 09:38:57;;;;;;;23.48;13.55;;;;;;;18.19;51.92;102214.53;5065362;28;20376;-80
2022/05/07 09:41:22;;;;;;;23.85;14.90;;;;;;;18.23;50.69;102220.56;5066214;28;20048;-80
2022/05/07 09:43:52;;;;;;;23.05;13.95;;;;;;;18.24;50.96;102214.38;5068142;28;20067;-80
2022/05/07 09:46:19;;;;;;;20.25;13.32;;;;;;;18.27;50.35;102218.69;5066485;28;20047;-80
2022/05/07 09:48:46;;;;;;;25.98;14.30;;;;;;;18.30;52.06;102219.41;5062059;28;20532;-79
2022/05/07 09:51:11;;;;;;;24.02;13.45;;;;;;;18.33;50.38;102221.09;5065355;28;20789;-79
2022/05/07 09:59:06;;;;;;;21.90;14.35;;;;;;;18.27;50.70;102224.81;5061889;28;20039;-80
2022/05/07 10:01:40;;;;;;;20.67;12.65;;;;;;;18.26;48.75;102223.09;5066588;28;20024;-80
2022/05/07 10:04:08;;;;;;;19.35;11.18;;;;;;;18.24;47.55;102224.94;5066644;28;20028;-79
2022/05/07 10:06:56;;;;;;;15.93;10.23;;;;;;;18.25;48.74;102234.56;5063135;28;20041;-79
2022/05/07 10:09:40;;;;;;;18.20;10.55;;;;;;;18.27;48.85;102226.59;5064584;28;20438;-80
2022/05/07 10:12:07;;;;;;;17.73;11.15;;;;;;;18.30;46.72;102229.09;5066388;28;20047;-80
2022/05/07 10:14:32;;;;;;;18.02;10.43;;;;;;;18.32;47.06;102233.41;5067187;28;20032;-80
2022/05/07 10:17:09;;;;;;;17.65;9.13;;;;;;;18.33;48.82;102224.59;5067961;28;20017;-79
2022/05/07 10:19:38;;;;;;;16.88;9.85;;;;;;;18.39;47.84;102222.66;5064544;28;20042;-80
2022/05/07 10:22:23;;;;;;;17.77;9.45;;;;;;;18.44;48.43;102213.66;5061031;28;21654;-80
2022/05/07 10:25:04;;;;;;;14.02;9.23;;;;;;;18.53;48.04;102230.91;5062873;28;20509;-79
2022/05/07 10:27:31;;;;;;;15.30;9.25;;;;;;;18.53;47.53;102212.44;5064431;28;20630;-79
2022/05/07 10:30:06;;;;;;;16.45;9.07;;;;;;;18.56;47.11;102207.06;5065425;28;20039;-80
2022/05/07 10:32:44;;;;;;;15.77;8.77;;;;;;;18.62;47.59;102209.44;5064987;28;20158;-80
2022/05/07 10:35:11;;;;;;;16.52;8.93;;;;;;;18.66;46.03;102208.44;5064611;28;20031;-79
2022/05/07 10:37:42;;;;;;;12.40;7.68;;;;;;;18.74;47.12;102209.94;5064078;28;20036;-80
2022/05/07 10:40:11;;;;;;;12.70;7.85;;;;;;;18.80;46.73;102201.75;5063836;28;20040;-80
2022/05/07 10:42:40;;;;;;;17.08;8.95;;;;;;;18.87;45.76;102211.16;5047975;28;20127;-80
2022/05/07 10:45:27;;;;;;;11.73;7.95;;;;;;;18.93;47.11;102210.94;5065986;28;20036;-80
2022/05/07 10:47:57;;;;;;;14.85;8.10;;;;;;;18.92;46.35;102203.94;5061343;28;20062;-80
2022/05/07 10:50:23;;;;;;;15.13;7.85;;;;;;;18.95;46.78;102198.56;5064699;28;20457;-79
2022/05/07 10:52:55;;;;;;;13.85;7.60;;;;;;;19.01;46.09;102204.50;5063572;28;20056;-80
2022/05/07 10:55:29;;;;;;;15.38;8.55;;;;;;;19.03;46.75;102202.69;5064191;28;20089;-79
2022/05/07 10:57:57;;;;;;;15.18;8.38;;;;;;;19.04;46.53;102204.41;5064321;28;20036;-80
2022/05/07 11:00:22;;;;;;;13.90;8.27;;;;;;;19.05;45.17;102195.56;5065562;28;20119;-79
2022/05/07 11:02:50;;;;;;;16.35;8.95;;;;;;;19.03;45.91;102193.00;5064289;28;20522;-79
2022/05/07 11:05:16;;;;;;;14.02;8.10;;;;;;;19.08;45.25;102195.44;5065392;28;20024;-80
2022/05/07 11:07:43;;;;;;;18.08;8.85;;;;;;;19.15;46.55;102185.50;5063811;28;20582;-80
2022/05/07 11:10:09;;;;;;;14.70;8.25;;;;;;;19.22;44.92;102182.56;5063308;28;20072;-80
2022/05/07 11:12:35;;;;;;;15.50;9.30;;;;;;;19.30;45.11;102184.03;5063467;28;20028;-79
2022/05/07 11:15:02;;;;;;;18.15;9.02;;;;;;;19.37;47.59;102186.34;5063768;28;20031;-79
2022/05/07 11:17:30;;;;;;;17.88;8.85;;;;;;;19.43;45.56;102187.88;5064081;28;20031;-79
2022/05/07 11:19:55;;;;;;;16.63;8.98;;;;;;;19.47;46.66;102181.50;5065034;28;20028;-79
2022/05/07 11:22:29;;;;;;;14.50;8.82;;;;;;;19.55;48.75;102176.78;5060783;28;20032;-79
2022/05/07 11:24:56;;;;;;;16.10;8.70;;;;;;;19.66;46.42;102178.09;5063668;28;20032;-79
2022/05/07 11:27:22;;;;;;;15.73;8.57;;;;;;;19.68;42.99;102179.78;5062986;28;20434;-80
2022/05/07 11:29:47;;;;;;;14.85;7.93;;;;;;;19.69;44.25;102177.97;5065546;28;20032;-80